createdAt,value
2019-05-15T00:05:19.275Z,35.40
2019-05-15T00:15:21.240Z,35.40
2019-05-15T00:25:23.200Z,35.10
2019-05-15T00:35:28.021Z,35.00
2019-05-15T00:45:30.263Z,35.00
2019-05-15T00:55:32.294Z,35.00
2019-05-15T01:05:34.214Z,34.80
2019-05-15T01:15:38.442Z,34.70
2019-05-15T01:25:40.003Z,34.60
2019-05-15T01:35:41.958Z,34.40
2019-05-15T01:45:44.059Z,34.30
2019-05-15T01:55:48.230Z,34.40
2019-05-15T02:05:49.929Z,34.20
2019-05-15T02:15:51.994Z,34.30
2019-05-15T02:25:53.968Z,34.20
2019-05-15T02:35:55.988Z,34.40
2019-05-15T02:46:00.380Z,34.30
2019-05-15T02:56:01.908Z,34.30
2019-05-15T03:06:03.787Z,35.00
2019-05-15T03:16:06.196Z,36.10
2019-05-15T03:26:08.848Z,37.50
2019-05-15T03:36:13.342Z,37.90
2019-05-15T03:46:14.417Z,41.80
2019-05-15T03:56:19.127Z,38.90
2019-05-15T04:06:20.200Z,39.50
2019-05-15T04:16:22.160Z,39.50
2019-05-15T04:26:28.670Z,39.70
2019-05-15T04:36:33.002Z,38.90
2019-05-15T04:46:35.043Z,38.30
2019-05-15T04:56:39.913Z,38.10
2019-05-15T05:06:40.924Z,38.10
2019-05-15T05:16:42.914Z,38.00
2019-05-15T05:26:45.014Z,37.50
2019-05-15T05:36:47.981Z,36.90
2019-05-15T05:46:50.057Z,36.70
2019-05-15T05:56:52.187Z,35.90
2019-05-15T06:07:06.183Z,35.00
2019-05-15T06:16:58.910Z,34.50
2019-05-15T06:27:01.098Z,33.80
2019-05-15T06:37:03.118Z,32.80
2019-05-15T06:47:05.103Z,32.40
2019-05-15T06:57:09.123Z,32.10
2019-05-15T07:07:11.337Z,31.50
2019-05-15T07:17:13.415Z,30.70
2019-05-15T07:27:15.423Z,30.00
2019-05-15T07:37:19.040Z,29.60
2019-05-15T07:47:21.188Z,28.70
2019-05-15T07:57:23.210Z,28.20
2019-05-15T08:07:25.234Z,27.80
2019-05-15T08:17:30.070Z,27.40
2019-05-15T08:27:32.164Z,27.00
2019-05-15T08:37:34.129Z,26.90
2019-05-15T08:47:38.407Z,26.70
2019-05-15T08:57:39.995Z,26.20
2019-05-15T09:07:42.120Z,25.80
2019-05-15T09:17:44.223Z,25.30
2019-05-15T09:27:46.216Z,25.00
2019-05-15T09:37:50.044Z,24.60
2019-05-15T09:47:52.007Z,24.20
2019-05-15T09:57:55.139Z,24.00
2019-05-15T10:07:57.266Z,24.20
2019-05-15T10:17:59.856Z,24.20
2019-05-15T10:28:01.474Z,23.90
2019-05-15T10:38:03.512Z,23.10
2019-05-15T10:48:05.658Z,23.80
2019-05-15T10:58:14.100Z,24.00
2019-05-15T11:08:11.372Z,24.10
2019-05-15T11:18:13.526Z,24.00
2019-05-15T11:28:15.918Z,23.40
2019-05-15T11:38:19.493Z,22.70
2019-05-15T11:48:21.833Z,22.50
2019-05-15T11:58:23.795Z,13.00
2019-05-15T12:08:25.878Z,6.60
2019-05-15T12:18:28.485Z,3.70
2019-05-15T12:28:30.800Z,1.00
2019-05-15T12:38:32.792Z,1.00
2019-05-15T13:08:42.642Z,1.00
2019-05-15T13:18:44.980Z,1.00
2019-05-15T13:28:48.964Z,1.00
2019-05-15T13:38:51.087Z,1.00
2019-05-15T13:48:52.994Z,2.20
2019-05-15T13:58:55.007Z,5.50
2019-05-15T14:08:58.129Z,8.40
2019-05-15T14:19:00.293Z,11.10
2019-05-15T14:29:02.558Z,12.00
2019-05-15T14:39:08.053Z,11.50
2019-05-15T14:49:10.167Z,9.50
2019-05-15T14:59:12.197Z,5.60
2019-05-15T15:09:14.291Z,6.00
2019-05-15T15:19:18.386Z,10.90
2019-05-15T15:29:21.572Z,12.80
2019-05-15T15:39:23.859Z,12.50
2019-05-15T15:49:27.870Z,13.90
2019-05-15T15:59:29.069Z,16.50
2019-05-15T16:09:31.115Z,14.90
2019-05-15T16:19:33.159Z,15.40
2019-05-15T16:29:35.157Z,15.80
2019-05-15T16:39:38.224Z,16.40
2019-05-15T16:49:40.615Z,16.70
2019-05-15T16:59:42.661Z,17.30
2019-05-15T17:09:44.707Z,17.30
2019-05-15T17:19:48.502Z,17.80
2019-05-15T17:29:50.595Z,17.90
2019-05-15T17:39:52.746Z,18.20
2019-05-15T17:49:54.852Z,18.50
2019-05-15T17:59:58.837Z,19.20
2019-05-15T18:10:01.847Z,19.50
2019-05-15T18:20:04.802Z,20.00
2019-05-15T18:30:09.364Z,20.60
2019-05-15T18:40:11.636Z,21.00
2019-05-15T18:50:13.738Z,21.40
2019-05-15T19:00:18.356Z,23.80
2019-05-15T19:10:20.161Z,21.90
2019-05-15T19:20:22.216Z,22.50
2019-05-15T19:30:24.465Z,23.00
2019-05-15T19:40:28.304Z,23.30
2019-05-15T19:50:30.471Z,23.70
2019-05-15T20:00:32.423Z,24.30
2019-05-15T20:10:34.496Z,24.60
2019-05-15T20:20:38.581Z,25.20
2019-05-15T20:30:40.451Z,25.60
2019-05-15T20:40:44.272Z,26.10
2019-05-15T20:50:48.290Z,26.30
2019-05-15T21:00:50.108Z,26.90
2019-05-15T21:10:52.352Z,27.60
2019-05-15T21:20:54.343Z,28.40
2019-05-15T21:30:58.123Z,28.30
2019-05-15T21:41:00.117Z,28.30
2019-05-15T21:51:02.015Z,28.70
2019-05-15T22:01:08.086Z,29.20
2019-05-15T22:11:10.161Z,29.40
2019-05-15T22:21:12.292Z,29.30
2019-05-15T22:31:14.334Z,29.50
2019-05-15T22:41:18.760Z,29.20
2019-05-15T22:51:20.067Z,29.20
2019-05-15T23:01:22.019Z,29.40
2019-05-15T23:11:24.732Z,29.60
2019-05-15T23:21:28.638Z,29.80
2019-05-15T23:31:30.166Z,32.00
2019-05-15T23:41:32.110Z,30.20
2019-05-15T23:51:34.070Z,30.40
